createdAt,value
2022-09-02T00:04:05.456Z,8.93
2022-09-02T00:09:12.564Z,5.10
2022-09-02T00:14:20.635Z,2.35
2022-09-02T00:19:26.626Z,5.70
2022-09-02T00:24:32.811Z,3.62
2022-09-02T00:29:36.539Z,4.68
2022-09-02T00:34:40.299Z,4.62
2022-09-02T00:39:45.428Z,5.37
2022-09-02T00:44:49.630Z,4.95
2022-09-02T00:49:55.131Z,2.17
2022-09-02T00:55:05.135Z,9.95
2022-09-02T01:00:16.607Z,2.92
2022-09-02T01:05:23.364Z,5.55
2022-09-02T01:10:32.867Z,3.95
2022-09-02T01:15:43.946Z,2.08
2022-09-02T01:20:48.306Z,4.62
2022-09-02T01:25:53.573Z,2.33
2022-09-02T01:30:57.292Z,2.05
2022-09-02T01:36:02.972Z,1.70
2022-09-02T01:41:08.252Z,3.75
2022-09-02T01:46:12.388Z,1.92
2022-09-02T01:51:18.671Z,7.97
2022-09-02T01:56:23.981Z,4.07
2022-09-02T02:01:28.407Z,4.80
2022-09-02T02:06:33.982Z,3.20
2022-09-02T02:11:40.715Z,8.70
2022-09-02T02:16:44.683Z,4.03
2022-09-02T02:21:48.795Z,2.30
2022-09-02T02:26:53.986Z,6.20
2022-09-02T02:31:58.149Z,10.27
2022-09-02T02:37:02.864Z,4.53
2022-09-02T02:42:08.917Z,17.90
2022-09-02T02:47:12.823Z,5.60
2022-09-02T02:52:17.351Z,3.45
2022-09-02T02:57:22.487Z,2.87
2022-09-02T03:02:28.137Z,4.75
2022-09-02T03:07:32.113Z,2.70
2022-09-02T03:12:39.016Z,3.15
2022-09-02T03:17:43.254Z,6.18
2022-09-02T03:22:50.642Z,2.35
2022-09-02T03:27:56.337Z,3.83
2022-09-02T03:33:04.020Z,3.33
2022-09-02T03:38:09.383Z,6.82
2022-09-02T03:43:15.524Z,6.90
2022-09-02T03:48:19.371Z,6.32
2022-09-02T03:53:23.685Z,5.97
2022-09-02T03:58:29.934Z,6.05
2022-09-02T04:03:34.896Z,8.07
2022-09-02T04:08:38.941Z,5.35
2022-09-02T04:13:44.462Z,4.53
2022-09-02T04:18:52.082Z,5.65
2022-09-02T04:23:56.983Z,10.50
2022-09-02T04:29:02.496Z,6.80
2022-09-02T04:34:07.859Z,10.20
2022-09-02T04:39:12.019Z,7.87
2022-09-02T04:44:17.355Z,8.70
2022-09-02T04:49:22.498Z,11.12
2022-09-02T04:54:27.634Z,6.45
2022-09-02T04:59:36.377Z,19.08
2022-09-02T05:04:41.122Z,10.60
2022-09-02T05:09:45.669Z,9.38
2022-09-02T05:14:51.563Z,12.18
2022-09-02T05:19:55.971Z,12.60
2022-09-02T05:24:59.762Z,15.35
2022-09-02T05:30:07.783Z,12.80
2022-09-02T05:35:11.877Z,12.82
2022-09-02T05:40:16.148Z,14.20
2022-09-02T05:45:23.854Z,11.40
2022-09-02T05:50:29.783Z,14.48
2022-09-02T05:55:36.690Z,18.33
2022-09-02T06:00:41.865Z,24.15
2022-09-02T06:05:55.857Z,24.27
2022-09-02T06:11:01.148Z,19.05
2022-09-02T06:16:09.205Z,15.98
2022-09-02T06:21:16.300Z,18.05
2022-09-02T06:26:20.564Z,28.10
2022-09-02T06:31:26.167Z,19.87
2022-09-02T06:36:31.469Z,20.30
2022-09-02T06:41:36.188Z,14.57
2022-09-02T06:46:44.796Z,19.55
2022-09-02T06:51:50.397Z,23.52
2022-09-02T06:56:55.124Z,18.85
2022-09-02T07:02:00.933Z,37.25
2022-09-02T07:07:06.694Z,20.30
2022-09-02T07:12:11.052Z,21.60
2022-09-02T07:17:17.959Z,22.65
2022-09-02T07:22:22.892Z,23.25
2022-09-02T07:27:27.215Z,22.75
2022-09-02T07:32:33.866Z,25.40
2022-09-02T07:37:38.565Z,23.12
2022-09-02T07:42:42.631Z,25.83
2022-09-02T07:47:49.120Z,20.62
2022-09-02T07:52:53.459Z,19.80
2022-09-02T07:57:57.617Z,19.70
2022-09-02T08:03:03.268Z,20.80
2022-09-02T08:08:08.976Z,21.73
2022-09-02T08:13:12.738Z,24.77
2022-09-02T08:18:22.392Z,22.00
2022-09-02T08:23:36.576Z,22.58
2022-09-02T08:28:40.736Z,18.37
2022-09-02T08:33:45.792Z,29.33
2022-09-02T08:38:49.524Z,21.55
2022-09-02T08:43:56.420Z,23.12
2022-09-02T08:49:04.890Z,21.35
2022-09-02T08:54:15.252Z,27.83
2022-09-02T08:59:20.562Z,23.52
2022-09-02T09:04:45.714Z,20.75
2022-09-02T09:10:07.025Z,28.42
2022-09-02T09:15:14.787Z,23.40
2022-09-02T09:20:23.225Z,24.20
2022-09-02T09:25:29.824Z,24.75
2022-09-02T09:30:33.591Z,19.73
2022-09-02T09:35:50.665Z,23.52
2022-09-02T09:41:12.044Z,25.10
2022-09-02T09:46:27.022Z,24.73
2022-09-02T09:51:50.287Z,23.45
2022-09-02T09:56:55.901Z,21.77
2022-09-02T10:02:00.398Z,23.65
2022-09-02T10:07:05.739Z,21.08
2022-09-02T10:12:12.771Z,17.90
2022-09-02T10:17:40.198Z,15.77
2022-09-02T10:23:04.860Z,17.70
2022-09-02T10:28:22.968Z,22.00
2022-09-02T10:33:36.155Z,14.68
2022-09-02T10:38:45.787Z,16.90
2022-09-02T10:44:02.763Z,13.25
2022-09-02T10:49:14.660Z,7.97
2022-09-02T10:54:34.067Z,8.07
2022-09-02T10:59:45.198Z,8.05
2022-09-02T11:04:54.850Z,12.00
2022-09-02T11:10:06.767Z,7.35
2022-09-02T11:15:17.276Z,5.68
2022-09-02T11:20:31.499Z,3.17
2022-09-02T11:25:42.849Z,6.18
2022-09-02T11:30:54.673Z,3.85
2022-09-02T11:36:00.644Z,4.25
2022-09-02T11:41:36.289Z,1.87
2022-09-02T11:47:02.935Z,7.78
2022-09-02T11:52:19.760Z,3.60
2022-09-02T11:57:26.694Z,6.90
2022-09-02T12:02:38.417Z,7.93
2022-09-02T12:07:48.339Z,7.57
2022-09-02T12:13:08.054Z,9.38
2022-09-02T12:18:30.023Z,5.93
2022-09-02T12:24:07.352Z,7.05
2022-09-02T12:29:32.556Z,1.90
2022-09-02T12:34:56.695Z,6.57
2022-09-02T12:40:13.191Z,8.90
2022-09-02T12:45:29.031Z,2.08
2022-09-02T12:50:53.793Z,2.22
2022-09-02T12:56:01.734Z,2.55
2022-09-02T13:01:17.750Z,1.98
2022-09-02T13:06:31.505Z,8.20
2022-09-02T13:12:05.540Z,3.97
2022-09-02T13:17:36.059Z,6.97
2022-09-02T13:22:56.105Z,5.50
2022-09-02T13:28:23.952Z,4.25
2022-09-02T13:33:29.547Z,3.00
2022-09-02T13:38:33.527Z,3.10
2022-09-02T13:43:37.263Z,2.15
2022-09-02T13:48:42.580Z,14.25
2022-09-02T13:54:21.613Z,1.52
2022-09-02T13:59:14.900Z,1.60
2022-09-02T14:04:20.185Z,3.37
2022-09-02T14:09:27.840Z,4.87
2022-09-02T14:14:32.335Z,5.25
2022-09-02T14:19:37.379Z,10.60
2022-09-02T14:24:42.109Z,3.70
2022-09-02T14:29:48.626Z,3.87
2022-09-02T14:40:12.932Z,4.03
2022-09-02T14:45:27.405Z,5.90
2022-09-02T14:50:36.652Z,2.12
2022-09-02T14:55:54.228Z,2.65
2022-09-02T15:01:00.493Z,6.05
2022-09-02T15:06:04.529Z,4.82
2022-09-02T15:11:09.629Z,5.22
2022-09-02T15:16:13.385Z,2.83
2022-09-02T15:21:17.372Z,10.70
2022-09-02T15:26:22.768Z,5.20
2022-09-02T15:31:26.805Z,4.77
2022-09-02T15:36:31.431Z,2.87
2022-09-02T15:41:37.510Z,2.05
2022-09-02T15:51:45.964Z,5.68
2022-09-02T15:56:55.768Z,9.02
2022-09-02T16:02:00.585Z,3.83
2022-09-02T16:07:04.391Z,2.67
2022-09-02T16:12:10.559Z,5.78
2022-09-02T16:17:16.411Z,5.90
2022-09-02T16:22:20.213Z,2.28
2022-09-02T16:27:39.320Z,4.72
2022-09-02T16:32:43.183Z,9.10
2022-09-02T16:37:47.089Z,5.40
2022-09-02T16:42:52.304Z,10.82
2022-09-02T16:47:56.105Z,4.18
2022-09-02T16:52:59.842Z,3.00
2022-09-02T16:58:04.896Z,7.20
2022-09-02T17:03:10.771Z,2.78
2022-09-02T17:08:14.600Z,6.20
2022-09-02T17:13:19.699Z,5.70
2022-09-02T17:18:23.423Z,6.87
2022-09-02T17:23:27.132Z,6.07
2022-09-02T17:28:32.379Z,6.60
2022-09-02T17:33:36.142Z,2.70
2022-09-02T17:38:39.953Z,6.10
2022-09-02T17:43:45.174Z,6.50
2022-09-02T17:49:13.025Z,5.05
2022-09-02T17:54:14.004Z,5.35
2022-09-02T17:59:28.779Z,8.77
2022-09-02T18:04:45.812Z,6.45
2022-09-02T18:09:52.428Z,4.45
2022-09-02T18:14:59.692Z,4.33
2022-09-02T18:20:13.823Z,6.90
2022-09-02T18:25:29.405Z,4.68
2022-09-02T18:30:43.821Z,5.32
2022-09-02T18:35:55.682Z,5.72
2022-09-02T18:41:13.553Z,1.67
2022-09-02T18:46:20.580Z,3.58
2022-09-02T18:51:35.486Z,5.87
2022-09-02T18:56:48.298Z,3.37
2022-09-02T19:01:55.721Z,3.37
2022-09-02T19:07:13.710Z,3.55
2022-09-02T19:12:17.689Z,2.30
2022-09-02T19:17:22.878Z,4.90
2022-09-02T19:22:28.603Z,6.40
2022-09-02T19:27:36.515Z,6.53
2022-09-02T19:37:51.603Z,5.72
2022-09-02T19:42:55.823Z,4.80
2022-09-02T19:48:06.956Z,6.07
2022-09-02T19:53:17.278Z,3.22
2022-09-02T19:58:21.139Z,8.07
2022-09-02T20:03:26.331Z,6.43
2022-09-02T20:08:31.027Z,3.42
2022-09-02T20:13:40.717Z,5.45
2022-09-02T20:18:48.261Z,9.90
2022-09-02T20:23:53.874Z,6.50
2022-09-02T20:29:14.863Z,6.03
2022-09-02T20:34:37.037Z,9.32
2022-09-02T20:39:53.836Z,3.53
2022-09-02T20:45:05.251Z,3.60
2022-09-02T20:50:37.956Z,4.15
2022-09-02T20:55:49.090Z,6.78
2022-09-02T21:01:06.446Z,2.95
2022-09-02T21:06:12.247Z,4.37
2022-09-02T21:11:16.925Z,2.75
2022-09-02T21:16:25.086Z,8.35
2022-09-02T21:21:36.491Z,3.00
2022-09-02T21:26:48.315Z,2.67
2022-09-02T21:31:59.783Z,9.43
2022-09-02T21:37:05.723Z,6.30
2022-09-02T21:42:21.681Z,6.03
2022-09-02T21:47:32.196Z,8.02
2022-09-02T21:52:49.818Z,7.43
2022-09-02T21:58:18.824Z,1.87
2022-09-02T22:03:40.197Z,4.37
2022-09-02T22:08:51.947Z,3.87
2022-09-02T22:13:59.263Z,4.32
2022-09-02T22:19:10.132Z,5.47
2022-09-02T22:24:16.948Z,7.07
2022-09-02T22:29:28.630Z,8.63
2022-09-02T22:34:39.048Z,5.93
2022-09-02T22:39:50.025Z,6.22
2022-09-02T22:45:19.726Z,6.07
2022-09-02T22:50:45.377Z,7.65
2022-09-02T22:56:01.375Z,6.07
2022-09-02T23:01:15.811Z,4.18
2022-09-02T23:06:26.730Z,5.72
2022-09-02T23:11:40.839Z,3.55
2022-09-02T23:17:10.153Z,10.57
2022-09-02T23:22:22.175Z,5.68
2022-09-02T23:27:34.435Z,7.32
2022-09-02T23:32:55.786Z,5.85
2022-09-02T23:38:09.878Z,11.95
2022-09-02T23:43:18.206Z,9.48
2022-09-02T23:53:41.925Z,9.68
2022-09-02T23:59:05.229Z,13.85
